Time;durP1;ratioP1;P1;durP2;ratioP2;P2;SDS_P1;SDS_P2;PMS_P1;PMS_P2;Temp;Humidity;BMP_temperature;BMP_pressure;BME280_temperature;BME280_humidity;BME280_pressure;Samples;Min_cycle;Max_cycle;Signal;HPM_P1;HPM_P2
2022/09/01 00:01:07;;;;;;;3.53;1.38;;;;;;;;;;5023629;28;20388;-64
2022/09/01 00:03:34;;;;;;;2.05;1.10;;;;;;;;;;5025574;28;20017;-64
2022/09/01 00:05:59;;;;;;;2.80;1.20;;;;;;;;;;5032697;28;20029;-64
2022/09/01 00:08:25;;;;;;;4.93;1.58;;;;;;;;;;5023865;28;20384;-64
2022/09/01 00:10:50;;;;;;;2.85;1.13;;;;;;;;;;5022432;28;20429;-64
2022/09/01 00:13:16;;;;;;;3.83;1.30;;;;;;;;;;5032957;28;20021;-64
2022/09/01 00:15:42;;;;;;;3.25;1.25;;;;;;;;;;5032294;28;20044;-65
2022/09/01 00:18:07;;;;;;;3.42;1.10;;;;;;;;;;5024622;28;20029;-64
2022/09/01 00:20:33;;;;;;;3.20;1.20;;;;;;;;;;5022678;28;20030;-65
2022/09/01 00:23:02;;;;;;;4.45;1.30;;;;;;;;;;5023197;28;20021;-64
2022/09/01 00:25:28;;;;;;;3.85;1.23;;;;;;;;;;5029789;28;20076;-64
2022/09/01 00:27:58;;;;;;;3.60;1.50;;;;;;;;;;5032876;28;20029;-64
2022/09/01 00:30:23;;;;;;;4.28;1.40;;;;;;;;;;5032814;28;20064;-65
2022/09/01 00:32:49;;;;;;;2.55;1.30;;;;;;;;;;5032915;28;20072;-64
2022/09/01 00:35:17;;;;;;;2.00;1.20;;;;;;;;;;5032935;28;20025;-65
2022/09/01 00:37:44;;;;;;;3.00;1.30;;;;;;;;;;5032780;28;20029;-65
2022/09/01 00:40:12;;;;;;;3.15;1.27;;;;;;;;;;5032808;28;20365;-64
2022/09/01 00:42:39;;;;;;;2.35;1.38;;;;;;;;;;5032381;28;20045;-66
2022/09/01 00:45:07;;;;;;;2.15;1.38;;;;;;;;;;5032470;28;20047;-70
2022/09/01 00:47:34;;;;;;;3.92;1.27;;;;;;;;;;5032625;28;20476;-67
2022/09/01 00:50:02;;;;;;;3.10;1.50;;;;;;;;;;5032664;28;20036;-67
2022/09/01 00:52:33;;;;;;;4.53;1.50;;;;;;;;;;5032704;28;20468;-65
2022/09/01 00:55:03;;;;;;;2.83;1.52;;;;;;;;;;5032756;28;20125;-68
2022/09/01 00:57:28;;;;;;;3.55;1.67;;;;;;;;;;5032711;28;20029;-68
2022/09/01 01:00:17;;;;;;;4.03;1.60;;;;;;;;;;5032476;28;20078;-70
2022/09/01 01:02:43;;;;;;;2.25;1.27;;;;;;;;;;5032184;28;20037;-65
2022/09/01 01:05:10;;;;;;;3.63;2.15;;;;;;;;;;5032489;28;20037;-65
2022/09/01 01:07:37;;;;;;;3.22;1.60;;;;;;;;;;5032527;28;20048;-65
2022/09/01 01:10:06;;;;;;;2.88;1.50;;;;;;;;;;5032543;28;20044;-67
2022/09/01 01:12:32;;;;;;;4.97;1.40;;;;;;;;;;5032106;28;20059;-65
2022/09/01 01:14:58;;;;;;;2.75;1.30;;;;;;;;;;5032513;28;20519;-69
2022/09/01 01:17:24;;;;;;;2.45;1.40;;;;;;;;;;5032385;28;20021;-66
2022/09/01 01:23:04;;;;;;;4.55;1.70;;;;;;;;;;5032763;28;20404;-66
2022/09/01 01:25:56;;;;;;;3.83;1.50;;;;;;;;;;5032342;28;20032;-65
2022/09/01 01:28:30;;;;;;;3.30;1.70;;;;;;;;;;5030032;28;20124;-68
2022/09/01 01:31:04;;;;;;;3.10;1.80;;;;;;;;;;5032340;28;20026;-66
2022/09/01 01:33:35;;;;;;;3.42;1.52;;;;;;;;;;5032385;28;20030;-71
2022/09/01 01:36:02;;;;;;;3.83;1.55;;;;;;;;;;5033335;28;20112;-69
2022/09/01 01:38:29;;;;;;;4.82;1.52;;;;;;;;;;5035983;28;20362;-66
2022/09/01 01:40:54;;;;;;;3.20;1.45;;;;;;;;;;5035942;28;20056;-64
2022/09/01 01:43:21;;;;;;;3.63;1.75;;;;;;;;;;5026723;28;20397;-66
2022/09/01 01:45:50;;;;;;;2.97;1.67;;;;;;;;;;5016057;28;20037;-67
2022/09/01 01:48:21;;;;;;;5.78;2.72;;;;;;;;;;5015964;28;20495;-69
2022/09/01 01:50:48;;;;;;;4.22;2.63;;;;;;;;;;5015967;28;20461;-69
2022/09/01 01:53:16;;;;;;;7.00;2.38;;;;;;;;;;5015995;28;20056;-69
2022/09/01 01:55:42;;;;;;;7.20;2.33;;;;;;;;;;5015706;28;20117;-65
2022/09/01 01:58:10;;;;;;;3.05;1.88;;;;;;;;;;5015811;28;20026;-66
2022/09/01 02:00:37;;;;;;;3.35;2.00;;;;;;;;;;5015899;28;20052;-70
2022/09/01 02:03:04;;;;;;;3.60;2.17;;;;;;;;;;5015809;28;20482;-67
2022/09/01 02:05:31;;;;;;;3.60;2.45;;;;;;;;;;5015771;28;20338;-69
2022/09/01 02:08:05;;;;;;;4.32;2.00;;;;;;;;;;5015784;28;20447;-67
2022/09/01 02:10:34;;;;;;;3.38;2.10;;;;;;;;;;5015458;28;20428;-65
2022/09/01 02:13:03;;;;;;;5.45;2.60;;;;;;;;;;5015589;28;20040;-68
2022/09/01 02:15:43;;;;;;;4.30;2.75;;;;;;;;;;5015620;28;20025;-71
2022/09/01 02:18:27;;;;;;;4.50;2.47;;;;;;;;;;5015601;28;20048;-65
2022/09/01 02:20:54;;;;;;;6.53;2.78;;;;;;;;;;5015557;28;20026;-66
2022/09/01 02:23:24;;;;;;;4.15;2.70;;;;;;;;;;5015453;28;20028;-65
2022/09/01 02:26:01;;;;;;;5.57;2.60;;;;;;;;;;5015116;28;20033;-68
2022/09/01 02:28:30;;;;;;;5.65;2.30;;;;;;;;;;5015225;28;20030;-70
2022/09/01 02:30:56;;;;;;;5.90;2.55;;;;;;;;;;5015274;28;20025;-64
2022/09/01 02:33:24;;;;;;;5.90;2.55;;;;;;;;;;5015389;28;20030;-66
2022/09/01 02:35:58;;;;;;;5.00;2.65;;;;;;;;;;5015199;28;20428;-68
2022/09/01 02:38:26;;;;;;;6.10;2.50;;;;;;;;;;5015186;28;20026;-65
2022/09/01 02:40:52;;;;;;;5.18;2.33;;;;;;;;;;5014759;28;20484;-69
2022/09/01 02:43:19;;;;;;;8.88;2.53;;;;;;;;;;5031492;28;20075;-65
2022/09/01 02:45:51;;;;;;;3.95;2.15;;;;;;;;;;5054418;28;20021;-68
2022/09/01 02:48:17;;;;;;;3.25;2.30;;;;;;;;;;5054150;28;20395;-65
2022/09/01 02:50:43;;;;;;;6.13;2.40;;;;;;;;;;5054552;28;20044;-66
2022/09/01 02:53:09;;;;;;;5.68;2.40;;;;;;;;;;5054530;28;20353;-66
2022/09/01 02:55:41;;;;;;;4.10;2.15;;;;;;;;;;5054348;28;20107;-65
2022/09/01 02:58:12;;;;;;;3.70;2.20;;;;;;;;;;5053116;28;20463;-65
2022/09/01 03:00:38;;;;;;;5.63;2.35;;;;;;;;;;5054391;28;20463;-65
2022/09/01 03:03:06;;;;;;;13.50;5.35;;;;;;;;;;5054156;28;20537;-65
2022/09/01 03:05:33;;;;;;;7.05;2.78;;;;;;;;;;5054292;28;20029;-67
2022/09/01 03:08:04;;;;;;;3.28;1.88;;;;;;;;;;5054188;28;20087;-65
2022/09/01 03:10:35;;;;;;;6.72;2.03;;;;;;;;;;5053941;28;20025;-67
2022/09/01 03:13:09;;;;;;;3.50;1.63;;;;;;;;;;5054099;28;20021;-65
2022/09/01 03:15:35;;;;;;;5.28;2.30;;;;;;;;;;5054186;28;20036;-70
2022/09/01 03:18:02;;;;;;;2.47;1.83;;;;;;;;;;5054079;28;20062;-65
2022/09/01 03:20:30;;;;;;;5.82;2.20;;;;;;;;;;5054015;28;20029;-63
2022/09/01 03:22:57;;;;;;;4.57;1.90;;;;;;;;;;5053396;28;20602;-67
2022/09/01 03:25:24;;;;;;;3.50;1.88;;;;;;;;;;5053877;28;20044;-67
2022/09/01 03:27:51;;;;;;;7.55;1.90;;;;;;;;;;5053852;28;20021;-67
2022/09/01 03:30:17;;;;;;;3.08;1.80;;;;;;;;;;5053850;28;20041;-68
2022/09/01 03:32:44;;;;;;;6.10;2.22;;;;;;;;;;5053922;28;20021;-65
2022/09/01 03:35:10;;;;;;;5.43;2.17;;;;;;;;;;5052477;28;20025;-68
2022/09/01 03:37:38;;;;;;;4.68;2.20;;;;;;;;;;5051991;28;20025;-65
2022/09/01 03:40:07;;;;;;;6.95;2.10;;;;;;;;;;5053444;28;20028;-64
2022/09/01 03:42:34;;;;;;;4.15;1.98;;;;;;;;;;5048606;28;20088;-67
2022/09/01 03:45:06;;;;;;;4.22;1.75;;;;;;;;;;5013652;28;20060;-66
2022/09/01 03:47:32;;;;;;;6.57;2.20;;;;;;;;;;5013744;28;20104;-67
2022/09/01 03:49:58;;;;;;;7.15;2.65;;;;;;;;;;5013655;28;20030;-64
2022/09/01 03:52:28;;;;;;;5.95;2.28;;;;;;;;;;5013545;28;20026;-66
2022/09/01 03:54:54;;;;;;;5.03;2.35;;;;;;;;;;5013708;28;20022;-66
2022/09/01 03:57:20;;;;;;;11.80;3.55;;;;;;;;;;5013506;28;20096;-67
2022/09/01 03:59:45;;;;;;;8.45;2.75;;;;;;;;;;5012850;28;20469;-66
2022/09/01 04:02:11;;;;;;;7.28;2.25;;;;;;;;;;5013593;28;20033;-66
2022/09/01 04:04:37;;;;;;;3.78;2.50;;;;;;;;;;5013321;28;20368;-66
2022/09/01 04:07:03;;;;;;;4.40;3.00;;;;;;;;;;5012921;28;20038;-64
2022/09/01 04:09:28;;;;;;;5.47;2.40;;;;;;;;;;5013217;28;20033;-65
2022/09/01 04:11:54;;;;;;;4.10;2.20;;;;;;;;;;5013286;28;20048;-64
2022/09/01 04:14:19;;;;;;;5.63;1.95;;;;;;;;;;5013111;28;20033;-65
2022/09/01 04:19:35;;;;;;;5.95;2.50;;;;;;;;;;5013469;28;20033;-63
2022/09/01 04:22:02;;;;;;;7.60;2.35;;;;;;;;;;5012720;28;20026;-69
2022/09/01 04:24:30;;;;;;;6.50;2.70;;;;;;;;;;5012868;28;20033;-67
2022/09/01 04:26:57;;;;;;;6.97;2.10;;;;;;;;;;5012966;28;20030;-64
2022/09/01 04:29:26;;;;;;;3.08;2.13;;;;;;;;;;5012888;28;20040;-64
2022/09/01 04:32:00;;;;;;;3.05;2.20;;;;;;;;;;5012946;28;20029;-63
2022/09/01 04:34:27;;;;;;;7.40;2.53;;;;;;;;;;5012949;28;20030;-64
2022/09/01 04:36:54;;;;;;;3.90;2.30;;;;;;;;;;5012649;28;20034;-63
2022/09/01 04:39:20;;;;;;;4.80;2.35;;;;;;;;;;5012674;28;20385;-64
2022/09/01 04:41:46;;;;;;;8.40;2.35;;;;;;;;;;5012815;28;20104;-63
2022/09/01 04:44:15;;;;;;;8.32;2.15;;;;;;;;;;5012424;28;20546;-66
2022/09/01 04:46:45;;;;;;;6.88;2.38;;;;;;;;;;5012957;28;20038;-63
2022/09/01 04:49:14;;;;;;;3.67;2.30;;;;;;;;;;5012859;28;20026;-69
2022/09/01 04:51:42;;;;;;;7.38;2.92;;;;;;;;;;5012727;28;20037;-64
2022/09/01 04:54:13;;;;;;;8.48;3.25;;;;;;;;;;5012821;28;20038;-63
2022/09/01 04:56:44;;;;;;;5.07;3.60;;;;;;;;;;5012858;28;20432;-65
2022/09/01 04:59:11;;;;;;;7.43;3.20;;;;;;;;;;5012741;28;20123;-63
2022/09/01 05:01:44;;;;;;;6.43;3.95;;;;;;;;;;5012577;28;20037;-66
2022/09/01 05:04:21;;;;;;;8.40;3.72;;;;;;;;;;5012514;28;20046;-65
2022/09/01 05:06:54;;;;;;;13.32;3.50;;;;;;;;;;5012835;28;20479;-65
2022/09/01 05:09:20;;;;;;;11.07;3.47;;;;;;;;;;5012829;28;20026;-67
2022/09/01 05:11:47;;;;;;;6.85;3.60;;;;;;;;;;5016576;28;20088;-65
2022/09/01 05:14:17;;;;;;;6.88;3.47;;;;;;;;;;5016628;28;20105;-64
2022/09/01 05:16:43;;;;;;;10.57;3.70;;;;;;;;;;5016559;28;20041;-67
2022/09/01 05:19:13;;;;;;;14.95;4.28;;;;;;;;;;5016380;28;20489;-64
2022/09/01 05:21:44;;;;;;;10.13;3.85;;;;;;;;;;5016359;28;20104;-63
2022/09/01 05:24:14;;;;;;;9.32;4.50;;;;;;;;;;5016222;28;20038;-65
2022/09/01 05:26:41;;;;;;;12.90;4.85;;;;;;;;;;5016500;28;20052;-64
2022/09/01 05:29:12;;;;;;;12.18;4.47;;;;;;;;;;5016231;28;20030;-63
2022/09/01 05:31:39;;;;;;;;;;;;;;;;;;5016773;28;20033;-64
2022/09/01 05:34:08;;;;;;;8.32;4.53;;;;;;;;;;5016265;28;19921;-69
2022/09/01 05:36:36;;;;;;;13.83;4.33;;;;;;;;;;5016166;28;20034;-65
2022/09/01 05:39:03;;;;;;;13.20;4.20;;;;;;;;;;5016164;28;20373;-66
2022/09/01 05:41:29;;;;;;;14.27;5.07;;;;;;;;;;5016160;28;20022;-68
2022/09/01 05:43:55;;;;;;;12.63;4.57;;;;;;;;;;5015616;28;20408;-66
2022/09/01 05:46:25;;;;;;;9.77;5.40;;;;;;;;;;5015826;28;20462;-63
2022/09/01 05:48:52;;;;;;;14.70;5.63;;;;;;;;;;5015869;28;20061;-69
2022/09/01 05:51:21;;;;;;;12.63;6.13;;;;;;;;;;5015862;28;20053;-68
2022/09/01 05:53:50;;;;;;;9.43;4.93;;;;;;;;;;5015867;28;20018;-64
2022/09/01 05:56:18;;;;;;;13.85;5.35;;;;;;;;;;5015906;28;20524;-70
2022/09/01 05:58:45;;;;;;;14.35;5.15;;;;;;;;;;5015872;28;20113;-63
2022/09/01 06:01:20;;;;;;;13.40;6.15;;;;;;;;;;5024657;28;20028;-68
2022/09/01 06:03:48;;;;;;;13.63;4.20;;;;;;;;;;5033243;28;20029;-67
2022/09/01 06:06:14;;;;;;;10.13;4.40;;;;;;;;;;5034631;28;20431;-67
2022/09/01 06:08:41;;;;;;;12.90;4.10;;;;;;;;;;5034743;28;20022;-65
2022/09/01 06:11:12;;;;;;;10.73;4.40;;;;;;;;;;5034810;28;20117;-68
2022/09/01 06:13:40;;;;;;;13.38;4.93;;;;;;;;;;5036301;28;20052;-70
2022/09/01 06:16:10;;;;;;;10.95;5.20;;;;;;;;;;5035082;28;20419;-67
2022/09/01 06:18:37;;;;;;;9.10;5.00;;;;;;;;;;5034922;28;20439;-64
2022/09/01 06:21:07;;;;;;;11.80;4.72;;;;;;;;;;5032704;28;20037;-66
2022/09/01 06:23:34;;;;;;;15.07;4.95;;;;;;;;;;5032692;28;20033;-65
2022/09/01 06:26:00;;;;;;;12.07;3.80;;;;;;;;;;5034256;28;20026;-67
2022/09/01 06:28:28;;;;;;;9.57;4.40;;;;;;;;;;5034661;28;20037;-68
2022/09/01 06:30:56;;;;;;;15.15;3.63;;;;;;;;;;5034725;28;20063;-68
2022/09/01 06:33:23;;;;;;;8.77;3.00;;;;;;;;;;5034473;28;20357;-68
2022/09/01 06:35:51;;;;;;;6.60;2.70;;;;;;;;;;5034478;28;20076;-69
2022/09/01 06:38:18;;;;;;;10.57;3.13;;;;;;;;;;5034284;28;20029;-67
2022/09/01 06:40:44;;;;;;;6.95;2.53;;;;;;;;;;5034464;28;20025;-68
2022/09/01 06:43:14;;;;;;;9.88;2.70;;;;;;;;;;5041351;28;20052;-68
2022/09/01 06:45:43;;;;;;;9.10;2.20;;;;;;;;;;5053953;28;20029;-69
2022/09/01 06:48:14;;;;;;;6.10;2.58;;;;;;;;;;5054033;28;20487;-66
2022/09/01 06:50:41;;;;;;;6.65;2.53;;;;;;;;;;5054157;28;20036;-67
2022/09/01 06:53:10;;;;;;;14.48;2.80;;;;;;;;;;5053994;28;20056;-69
2022/09/01 06:55:37;;;;;;;9.23;2.00;;;;;;;;;;5054062;28;20075;-68
2022/09/01 06:58:07;;;;;;;6.60;2.13;;;;;;;;;;5053861;28;20119;-67
2022/09/01 07:00:40;;;;;;;9.63;4.13;;;;;;;;;;5053801;28;20036;-65
2022/09/01 07:03:08;;;;;;;6.43;2.50;;;;;;;;;;5053753;28;20037;-65
2022/09/01 07:05:42;;;;;;;2.58;1.20;;;;;;;;;;5053891;28;20510;-65
2022/09/01 07:08:12;;;;;;;4.97;1.42;;;;;;;;;;5053814;28;20029;-64
2022/09/01 07:10:46;;;;;;;8.77;1.60;;;;;;;;;;5053773;28;20492;-64
2022/09/01 07:13:17;;;;;;;5.28;2.30;;;;;;;;;;5053781;28;20033;-65
2022/09/01 07:15:43;;;;;;;8.00;2.35;;;;;;;;;;5053503;28;20224;-69
2022/09/01 07:18:11;;;;;;;4.75;2.40;;;;;;;;;;5053707;28;20021;-68
2022/09/01 07:20:40;;;;;;;4.93;1.50;;;;;;;;;;5053602;28;20082;-65
2022/09/01 07:23:06;;;;;;;3.30;1.23;;;;;;;;;;5053319;28;20421;-65
2022/09/01 07:25:40;;;;;;;5.97;1.38;;;;;;;;;;5053367;28;20282;-64
2022/09/01 07:28:07;;;;;;;6.63;1.50;;;;;;;;;;5053337;28;20033;-65
2022/09/01 07:30:34;;;;;;;3.05;0.93;;;;;;;;;;5051703;28;20024;-66
2022/09/01 07:32:59;;;;;;;3.85;1.17;;;;;;;;;;5052957;28;20094;-66
2022/09/01 07:35:25;;;;;;;2.53;0.93;;;;;;;;;;5053378;28;20025;-65
2022/09/01 07:37:50;;;;;;;5.13;0.90;;;;;;;;;;5033555;28;20029;-67
2022/09/01 07:40:20;;;;;;;3.22;1.20;;;;;;;;;;5033460;28;20049;-65
2022/09/01 07:42:46;;;;;;;3.20;0.85;;;;;;;;;;5036975;28;20056;-64
2022/09/01 07:45:14;;;;;;;5.10;1.10;;;;;;;;;;5052997;28;20029;-64
2022/09/01 07:47:39;;;;;;;4.50;1.10;;;;;;;;;;5053060;28;20087;-68
2022/09/01 07:50:09;;;;;;;5.38;1.20;;;;;;;;;;5053092;28;20431;-70
2022/09/01 07:52:39;;;;;;;2.53;1.00;;;;;;;;;;5053226;28;20385;-64
2022/09/01 07:55:07;;;;;;;8.05;1.67;;;;;;;;;;5052975;28;20091;-63
2022/09/01 07:57:33;;;;;;;5.72;1.38;;;;;;;;;;5052928;28;20442;-66
2022/09/01 07:59:58;;;;;;;2.90;1.98;;;;;;;;;;5052533;28;20025;-64
2022/09/01 08:02:24;;;;;;;5.22;1.90;;;;;;;;;;5052917;28;20029;-66
2022/09/01 08:04:49;;;;;;;3.92;2.05;;;;;;;;;;5052639;28;20025;-65
2022/09/01 08:07:15;;;;;;;5.72;1.52;;;;;;;;;;5052653;28;20116;-65
2022/09/01 08:09:41;;;;;;;3.47;1.02;;;;;;;;;;5027998;28;20044;-68
2022/09/01 08:12:07;;;;;;;2.55;1.30;;;;;;;;;;5032162;28;20219;-64
2022/09/01 08:14:33;;;;;;;4.32;1.60;;;;;;;;;;5032337;28;20030;-64
2022/09/01 08:16:59;;;;;;;2.10;1.10;;;;;;;;;;5032680;28;20068;-64
2022/09/01 08:19:25;;;;;;;3.90;1.10;;;;;;;;;;5032767;28;20377;-67
2022/09/01 08:21:50;;;;;;;2.72;0.98;;;;;;;;;;5032451;28;20399;-67
2022/09/01 08:24:16;;;;;;;5.50;1.52;;;;;;;;;;5032620;28;20029;-69
2022/09/01 08:26:41;;;;;;;2.35;1.25;;;;;;;;;;5032436;28;20025;-65
2022/09/01 08:29:07;;;;;;;5.80;1.15;;;;;;;;;;5032209;28;20048;-65
2022/09/01 08:31:32;;;;;;;4.82;1.50;;;;;;;;;;5031658;28;20028;-65
2022/09/01 08:33:58;;;;;;;2.95;1.55;;;;;;;;;;5032166;28;20025;-65
2022/09/01 08:36:24;;;;;;;2.42;1.42;;;;;;;;;;5032161;28;20035;-63
2022/09/01 08:38:50;;;;;;;4.57;1.70;;;;;;;;;;5032333;28;20036;-64
2022/09/01 08:41:46;;;;;;;3.10;1.73;;;;;;;;;;5032438;28;20025;-63
2022/09/01 08:44:29;;;;;;;4.35;1.90;;;;;;;;;;5016184;28;20114;-63
2022/09/01 08:47:08;;;;;;;7.05;1.83;;;;;;;;;;5012491;28;20030;-63
2022/09/01 08:49:35;;;;;;;6.65;1.70;;;;;;;;;;5012325;28;20026;-64
2022/09/01 08:52:19;;;;;;;6.75;1.70;;;;;;;;;;5011374;28;20028;-63
2022/09/01 08:54:52;;;;;;;7.80;1.33;;;;;;;;;;5011209;28;20061;-63
2022/09/01 08:57:41;;;;;;;1.77;0.82;;;;;;;;;;5012324;28;20026;-64
2022/09/01 09:00:10;;;;;;;2.15;0.82;;;;;;;;;;5012719;28;20034;-64
2022/09/01 09:03:13;;;;;;;1.53;0.77;;;;;;;;;;5011142;28;20057;-63
2022/09/01 09:05:53;;;;;;;4.95;1.10;;;;;;;;;;5012244;28;20311;-64
2022/09/01 09:08:37;;;;;;;;;;;;;;;;;;5012933;28;20101;-68
2022/09/01 09:11:23;;;;;;;4.25;1.00;;;;;;;;;;5012081;28;20013;-63
2022/09/01 09:14:22;;;;;;;5.03;1.30;;;;;;;;;;5012120;28;20032;-63
2022/09/01 09:16:52;;;;;;;1.85;0.90;;;;;;;;;;5012264;28;20029;-63
2022/09/01 09:19:27;;;;;;;1.63;0.90;;;;;;;;;;5012367;28;20030;-63
2022/09/01 09:21:55;;;;;;;1.70;0.80;;;;;;;;;;5012212;28;20030;-63
2022/09/01 09:24:46;;;;;;;3.50;1.42;;;;;;;;;;5012021;28;20096;-64
2022/09/01 09:27:25;;;;;;;;;;;;;;;;;;5012443;28;20504;-64
2022/09/01 09:30:04;;;;;;;2.60;1.00;;;;;;;;;;5012020;28;19992;-65
2022/09/01 09:32:52;;;;;;;1.90;0.90;;;;;;;;;;5012338;28;20073;-63
2022/09/01 09:35:26;;;;;;;3.47;1.00;;;;;;;;;;5012118;28;20113;-64
2022/09/01 09:37:52;;;;;;;3.53;0.80;;;;;;;;;;5012051;28;20030;-65
2022/09/01 09:40:21;;;;;;;3.05;0.90;;;;;;;;;;5011576;28;20030;-64
2022/09/01 09:42:55;;;;;;;6.97;0.90;;;;;;;;;;5011802;28;20049;-64
2022/09/01 09:45:33;;;;;;;1.52;0.77;;;;;;;;;;5018528;28;20025;-68
2022/09/01 09:48:04;;;;;;;2.80;0.90;;;;;;;;;;5031603;28;20030;-65
2022/09/01 09:50:31;;;;;;;;;;;;;;;;;;5032016;28;20022;-65
2022/09/01 09:53:28;;;;;;;4.00;0.90;;;;;;;;;;5031724;28;19920;-66
2022/09/01 09:56:17;;;;;;;2.00;0.80;;;;;;;;;;5031598;28;20029;-64
2022/09/01 09:58:45;;;;;;;3.20;0.73;;;;;;;;;;5035181;28;20029;-65
2022/09/01 10:01:27;;;;;;;1.55;0.98;;;;;;;;;;5045052;28;20379;-65
2022/09/01 10:03:56;;;;;;;7.00;1.02;;;;;;;;;;5055433;28;20031;-65
2022/09/01 10:06:46;;;;;;;1.45;0.70;;;;;;;;;;5054512;28;20394;-68
2022/09/01 10:09:16;;;;;;;1.27;0.70;;;;;;;;;;5054926;28;20033;-65
2022/09/01 10:11:47;;;;;;;9.32;1.38;;;;;;;;;;5054969;28;20476;-65
2022/09/01 10:14:23;;;;;;;2.22;0.90;;;;;;;;;;5054105;28;20452;-67
2022/09/01 10:16:59;;;;;;;3.20;0.90;;;;;;;;;;5053558;28;20434;-67
2022/09/01 10:19:27;;;;;;;2.60;0.90;;;;;;;;;;5052451;28;20087;-66
2022/09/01 10:21:53;;;;;;;4.68;0.90;;;;;;;;;;5053703;28;20032;-64
2022/09/01 10:24:34;;;;;;;4.38;0.80;;;;;;;;;;5054112;28;20024;-69
2022/09/01 10:27:04;;;;;;;5.57;0.80;;;;;;;;;;5054720;28;20025;-70
2022/09/01 10:29:35;;;;;;;5.95;1.20;;;;;;;;;;5054797;28;20025;-65
2022/09/01 10:32:07;;;;;;;6.60;1.15;;;;;;;;;;5054856;28;20036;-64
2022/09/01 10:34:36;;;;;;;3.10;1.35;;;;;;;;;;5054995;28;20017;-65
2022/09/01 10:37:03;;;;;;;1.58;0.95;;;;;;;;;;5054520;28;20033;-65
2022/09/01 10:39:28;;;;;;;1.88;0.88;;;;;;;;;;5054555;28;20094;-64
2022/09/01 10:41:56;;;;;;;2.83;0.75;;;;;;;;;;5041695;28;20037;-63
2022/09/01 10:44:29;;;;;;;7.80;0.90;;;;;;;;;;5017423;28;20112;-69
2022/09/01 10:46:56;;;;;;;3.10;0.90;;;;;;;;;;5014570;28;20064;-64
2022/09/01 10:49:27;;;;;;;3.65;1.08;;;;;;;;;;5015784;28;20033;-64
2022/09/01 10:51:55;;;;;;;1.95;0.80;;;;;;;;;;5029640;28;20444;-65
2022/09/01 10:54:55;;;;;;;0.82;0.70;;;;;;;;;;5034025;28;20022;-66
2022/09/01 10:57:30;;;;;;;2.03;0.85;;;;;;;;;;5026398;28;20057;-66
2022/09/01 11:00:34;;;;;;;1.92;0.60;;;;;;;;;;5034188;28;20394;-66
2022/09/01 11:03:11;;;;;;;0.82;0.70;;;;;;;;;;5033925;28;20022;-64
2022/09/01 11:05:52;;;;;;;5.78;1.00;;;;;;;;;;5033980;28;20043;-66
2022/09/01 11:08:41;;;;;;;3.45;0.90;;;;;;;;;;5033377;28;20089;-64
2022/09/01 11:11:19;;;;;;;1.50;0.57;;;;;;;;;;5033796;28;20333;-65
2022/09/01 11:13:48;;;;;;;1.20;0.75;;;;;;;;;;5033659;28;20033;-66
2022/09/01 11:16:35;;;;;;;1.55;0.70;;;;;;;;;;5033852;28;20060;-66
2022/09/01 11:19:22;;;;;;;1.65;0.77;;;;;;;;;;5034242;28;20034;-64
2022/09/01 11:22:10;;;;;;;1.73;0.70;;;;;;;;;;5033465;28;20029;-67
2022/09/01 11:24:41;;;;;;;3.45;0.77;;;;;;;;;;5033444;28;20036;-64
2022/09/01 11:27:10;;;;;;;2.15;1.13;;;;;;;;;;5033245;28;20029;-64
2022/09/01 11:30:07;;;;;;;2.20;1.00;;;;;;;;;;5030118;28;20378;-63
2022/09/01 11:32:35;;;;;;;2.13;0.90;;;;;;;;;;5033434;28;20104;-66
2022/09/01 11:35:24;;;;;;;7.90;0.90;;;;;;;;;;5033292;28;20030;-67
2022/09/01 11:38:00;;;;;;;1.25;0.70;;;;;;;;;;5033120;28;20021;-64
2022/09/01 11:40:30;;;;;;;2.55;0.88;;;;;;;;;;5033307;28;20484;-65
2022/09/01 11:42:57;;;;;;;1.73;0.70;;;;;;;;;;5027752;28;20481;-64
2022/09/01 11:45:31;;;;;;;4.75;0.70;;;;;;;;;;5013522;28;20036;-66
2022/09/01 11:48:05;;;;;;;3.70;0.90;;;;;;;;;;5013259;28;20026;-65
2022/09/01 11:50:36;;;;;;;1.98;0.63;;;;;;;;;;5013387;28;20030;-66
2022/09/01 11:53:10;;;;;;;2.17;0.90;;;;;;;;;;5013300;28;20033;-65
2022/09/01 11:55:39;;;;;;;1.27;0.80;;;;;;;;;;5013305;28;20385;-64
2022/09/01 11:58:08;;;;;;;5.13;0.90;;;;;;;;;;5033697;28;20025;-67
2022/09/01 12:00:38;;;;;;;2.00;0.90;;;;;;;;;;5053001;28;20042;-69
2022/09/01 12:03:39;;;;;;;4.15;1.13;;;;;;;;;;5052595;28;20051;-67
2022/09/01 12:06:08;;;;;;;1.20;0.63;;;;;;;;;;4991121;28;20042;-65
2022/09/01 12:08:49;;;;;;;2.88;0.80;;;;;;;;;;4991360;28;20042;-65
2022/09/01 12:11:26;;;;;;;4.32;1.02;;;;;;;;;;4991286;28;20033;-65
2022/09/01 12:13:56;;;;;;;1.83;0.80;;;;;;;;;;4991390;28;20094;-69
2022/09/01 12:16:21;;;;;;;2.33;0.70;;;;;;;;;;4991240;28;20548;-69
2022/09/01 12:18:50;;;;;;;2.50;1.00;;;;;;;;;;4991011;28;20038;-64
2022/09/01 12:21:41;;;;;;;1.40;0.65;;;;;;;;;;4990500;28;20050;-65
2022/09/01 12:24:18;;;;;;;1.45;0.65;;;;;;;;;;4991299;28;20054;-66
2022/09/01 12:26:46;;;;;;;0.90;0.60;;;;;;;;;;4990890;28;20097;-67
2022/09/01 12:29:12;;;;;;;2.53;0.68;;;;;;;;;;4991011;28;20030;-64
2022/09/01 12:31:42;;;;;;;6.13;1.08;;;;;;;;;;4990947;28;20030;-64
2022/09/01 12:34:32;;;;;;;5.43;1.17;;;;;;;;;;4990748;28;20375;-64
2022/09/01 12:37:21;;;;;;;2.63;1.05;;;;;;;;;;4990905;28;20053;-64
2022/09/01 12:39:50;;;;;;;2.10;1.00;;;;;;;;;;5014850;28;20029;-64
2022/09/01 12:42:18;;;;;;;3.97;0.80;;;;;;;;;;5051969;28;20776;-65
2022/09/01 12:45:00;;;;;;;3.55;1.00;;;;;;;;;;5012542;28;20046;-65
2022/09/01 12:47:39;;;;;;;2.38;0.85;;;;;;;;;;5012533;28;20041;-65
2022/09/01 12:50:07;;;;;;;2.35;0.90;;;;;;;;;;5012498;28;20026;-66
2022/09/01 12:52:34;;;;;;;3.13;0.93;;;;;;;;;;5012593;28;20044;-69
2022/09/01 12:55:03;;;;;;;2.05;0.90;;;;;;;;;;5012535;28;20029;-69
2022/09/01 12:57:30;;;;;;;2.75;1.00;;;;;;;;;;5012324;28;20030;-70
2022/09/01 13:00:11;;;;;;;3.90;1.15;;;;;;;;;;5012471;28;20091;-65
2022/09/01 13:02:38;;;;;;;2.63;1.10;;;;;;;;;;5012250;28;20026;-68
2022/09/01 13:05:27;;;;;;;3.53;1.10;;;;;;;;;;5012200;28;20390;-70
2022/09/01 13:08:05;;;;;;;2.85;1.23;;;;;;;;;;5012525;28;20088;-68
2022/09/01 13:11:05;;;;;;;1.15;0.85;;;;;;;;;;5012431;28;20030;-71
2022/09/01 13:13:30;;;;;;;2.65;1.20;;;;;;;;;;5004908;28;20460;-69
2022/09/01 13:16:07;;;;;;;2.40;1.00;;;;;;;;;;5012162;28;20026;-70
2022/09/01 13:18:32;;;;;;;2.22;1.20;;;;;;;;;;5012217;28;20120;-65
2022/09/01 13:20:58;;;;;;;2.78;1.20;;;;;;;;;;5012352;28;20105;-69
2022/09/01 13:23:24;;;;;;;2.38;1.10;;;;;;;;;;5012101;28;20018;-67
2022/09/01 13:25:50;;;;;;;1.23;1.05;;;;;;;;;;5012226;28;20475;-67
2022/09/01 13:28:16;;;;;;;3.60;1.15;;;;;;;;;;5012265;28;20446;-68
2022/09/01 13:30:51;;;;;;;1.65;0.90;;;;;;;;;;5012835;28;20393;-69
2022/09/01 13:33:17;;;;;;;1.88;1.02;;;;;;;;;;5015850;28;20103;-71
2022/09/01 13:35:42;;;;;;;2.08;1.10;;;;;;;;;;5015973;28;20119;-70
2022/09/01 13:38:08;;;;;;;1.58;0.77;;;;;;;;;;5016086;28;20116;-68
2022/09/01 13:40:33;;;;;;;3.88;1.02;;;;;;;;;;5015962;28;20388;-69
2022/09/01 13:42:59;;;;;;;3.08;1.02;;;;;;;;;;5019731;28;20049;-69
2022/09/01 13:45:24;;;;;;;1.45;1.08;;;;;;;;;;5028933;28;20048;-66
2022/09/01 13:47:51;;;;;;;2.40;1.10;;;;;;;;;;5030081;28;20021;-70
2022/09/01 13:50:19;;;;;;;1.52;0.80;;;;;;;;;;5035616;28;20495;-70
2022/09/01 13:52:48;;;;;;;4.82;0.90;;;;;;;;;;5035377;28;20034;-69
2022/09/01 13:55:21;;;;;;;2.45;0.80;;;;;;;;;;5035318;28;20560;-70
2022/09/01 13:57:46;;;;;;;2.85;0.60;;;;;;;;;;5035200;28;20370;-71
2022/09/01 14:00:18;;;;;;;1.48;0.80;;;;;;;;;;5035507;28;20028;-67
2022/09/01 14:02:51;;;;;;;3.00;0.85;;;;;;;;;;5035130;28;20044;-66
2022/09/01 14:05:31;;;;;;;1.65;0.80;;;;;;;;;;5035072;28;20109;-64
2022/09/01 14:07:58;;;;;;;1.30;0.80;;;;;;;;;;5035305;28;20039;-64
2022/09/01 14:10:26;;;;;;;1.10;0.80;;;;;;;;;;5034682;28;20036;-65
2022/09/01 14:12:52;;;;;;;1.95;0.60;;;;;;;;;;5034738;28;20026;-70
2022/09/01 14:15:19;;;;;;;1.27;0.73;;;;;;;;;;5034439;28;20026;-70
2022/09/01 14:17:48;;;;;;;7.80;1.35;;;;;;;;;;5034935;28;20472;-66
2022/09/01 14:20:17;;;;;;;4.47;2.00;;;;;;;;;;5034842;28;20029;-70
2022/09/01 14:22:45;;;;;;;1.17;0.70;;;;;;;;;;5034803;28;20120;-69
2022/09/01 14:25:11;;;;;;;2.20;0.80;;;;;;;;;;5034443;28;20033;-66
2022/09/01 14:27:37;;;;;;;3.25;1.00;;;;;;;;;;5034706;28;20029;-69
2022/09/01 14:30:05;;;;;;;5.28;1.20;;;;;;;;;;5034457;28;20068;-69
2022/09/01 14:32:31;;;;;;;2.25;1.17;;;;;;;;;;5034463;28;20081;-69
2022/09/01 14:34:56;;;;;;;2.08;1.20;;;;;;;;;;5034255;28;20404;-70
2022/09/01 14:37:22;;;;;;;2.60;1.17;;;;;;;;;;5034387;28;20056;-67
2022/09/01 14:39:52;;;;;;;2.60;1.20;;;;;;;;;;5034152;28;20034;-66
2022/09/01 14:42:18;;;;;;;1.67;0.93;;;;;;;;;;5033645;28;20049;-68
2022/09/01 14:44:45;;;;;;;3.22;0.90;;;;;;;;;;5053939;28;20059;-68
2022/09/01 14:47:11;;;;;;;9.85;1.30;;;;;;;;;;5054085;28;20032;-70
2022/09/01 14:49:36;;;;;;;3.58;1.33;;;;;;;;;;5054363;28;20025;-68
2022/09/01 14:52:07;;;;;;;3.58;1.10;;;;;;;;;;5054143;28;20465;-67
2022/09/01 14:54:41;;;;;;;3.63;1.20;;;;;;;;;;5053935;28;20353;-66
2022/09/01 14:57:06;;;;;;;3.30;1.25;;;;;;;;;;5053816;28;20323;-66
2022/09/01 14:59:32;;;;;;;2.40;0.98;;;;;;;;;;5053777;28;20033;-68
2022/09/01 15:01:58;;;;;;;2.05;1.10;;;;;;;;;;5054303;28;20021;-66
2022/09/01 15:04:23;;;;;;;2.10;0.90;;;;;;;;;;5053920;28;20107;-70
2022/09/01 15:06:49;;;;;;;2.42;1.00;;;;;;;;;;5053974;28;20029;-67
2022/09/01 15:09:14;;;;;;;3.53;0.90;;;;;;;;;;5053489;28;20028;-70